sensor_id;sensor_type;location;lat;lon;timestamp;pressure;altitude;pressure_sealevel;temperature;humidity
58373;BME280;44177;43.356;27.672;2023-11-18T00:01:33;97134.25;;;9.32;100.00
58373;BME280;44177;43.356;27.672;2023-11-18T00:03:59;97144.59;;;9.23;100.00
58373;BME280;44177;43.356;27.672;2023-11-18T00:06:25;97143.31;;;9.16;100.00
58373;BME280;44177;43.356;27.672;2023-11-18T00:08:50;97126.75;;;9.02;100.00
58373;BME280;44177;43.356;27.672;2023-11-18T00:11:16;97132.19;;;9.02;100.00
58373;BME280;44177;43.356;27.672;2023-11-18T00:13:42;97126.56;;;8.91;100.00
58373;BME280;44177;43.356;27.672;2023-11-18T00:16:11;97146.81;;;8.94;100.00
58373;BME280;44177;43.356;27.672;2023-11-18T00:18:44;97152.97;;;8.91;100.00
58373;BME280;44177;43.356;27.672;2023-11-18T00:21:09;97133.25;;;8.74;100.00
58373;BME280;44177;43.356;27.672;2023-11-18T00:23:35;97148.41;;;8.75;100.00
58373;BME280;44177;43.356;27.672;2023-11-18T00:26:01;97140.19;;;8.72;100.00
58373;BME280;44177;43.356;27.672;2023-11-18T00:28:27;97152.22;;;8.71;100.00
58373;BME280;44177;43.356;27.672;2023-11-18T00:30:52;97143.22;;;8.66;100.00
58373;BME280;44177;43.356;27.672;2023-11-18T00:33:18;97143.41;;;8.58;100.00
58373;BME280;44177;43.356;27.672;2023-11-18T00:35:43;97149.28;;;8.60;100.00
58373;BME280;44177;43.356;27.672;2023-11-18T00:38:10;97135.13;;;8.50;100.00
58373;BME280;44177;43.356;27.672;2023-11-18T00:40:36;97103.56;;;8.26;100.00
58373;BME280;44177;43.356;27.672;2023-11-18T00:43:01;97132.34;;;8.47;100.00
58373;BME280;44177;43.356;27.672;2023-11-18T00:45:28;97133.81;;;8.44;100.00
58373;BME280;44177;43.356;27.672;2023-11-18T00:47:54;97129.16;;;8.45;100.00
58373;BME280;44177;43.356;27.672;2023-11-18T00:50:19;97128.69;;;8.39;100.00
58373;BME280;44177;43.356;27.672;2023-11-18T00:52:45;97133.53;;;8.49;100.00
58373;BME280;44177;43.356;27.672;2023-11-18T00:55:13;97119.53;;;8.47;100.00
58373;BME280;44177;43.356;27.672;2023-11-18T00:57:39;97101.06;;;8.37;100.00
58373;BME280;44177;43.356;27.672;2023-11-18T01:00:07;97101.63;;;8.46;100.00
58373;BME280;44177;43.356;27.672;2023-11-18T01:02:33;97076.97;;;8.35;100.00
58373;BME280;44177;43.356;27.672;2023-11-18T01:04:58;97093.03;;;8.44;100.00
58373;BME280;44177;43.356;27.672;2023-11-18T01:07:24;97098.34;;;8.37;100.00
58373;BME280;44177;43.356;27.672;2023-11-18T01:09:49;97097.00;;;8.27;100.00
58373;BME280;44177;43.356;27.672;2023-11-18T01:12:15;97114.66;;;8.37;100.00
58373;BME280;44177;43.356;27.672;2023-11-18T01:14:40;97071.09;;;8.14;100.00
58373;BME280;44177;43.356;27.672;2023-11-18T01:17:07;97109.50;;;8.32;100.00
58373;BME280;44177;43.356;27.672;2023-11-18T01:19:34;97114.38;;;8.22;100.00
58373;BME280;44177;43.356;27.672;2023-11-18T01:22:00;97096.97;;;8.07;100.00
58373;BME280;44177;43.356;27.672;2023-11-18T01:24:26;97100.84;;;8.06;100.00
58373;BME280;44177;43.356;27.672;2023-11-18T01:26:51;97096.97;;;8.07;100.00
58373;BME280;44177;43.356;27.672;2023-11-18T01:29:17;97093.75;;;8.02;100.00
58373;BME280;44177;43.356;27.672;2023-11-18T01:31:42;97073.47;;;7.96;100.00
58373;BME280;44177;43.356;27.672;2023-11-18T01:34:09;97079.09;;;7.87;100.00
58373;BME280;44177;43.356;27.672;2023-11-18T01:36:34;97070.88;;;7.83;100.00
58373;BME280;44177;43.356;27.672;2023-11-18T01:39:00;97087.50;;;7.82;100.00
58373;BME280;44177;43.356;27.672;2023-11-18T01:41:25;97080.31;;;7.89;100.00
58373;BME280;44177;43.356;27.672;2023-11-18T01:43:51;97079.88;;;7.87;100.00
58373;BME280;44177;43.356;27.672;2023-11-18T01:46:18;97090.22;;;7.82;100.00
58373;BME280;44177;43.356;27.672;2023-11-18T01:48:45;97078.81;;;7.72;100.00
58373;BME280;44177;43.356;27.672;2023-11-18T01:51:12;97073.22;;;7.65;100.00
58373;BME280;44177;43.356;27.672;2023-11-18T01:53:38;97075.84;;;7.62;100.00
58373;BME280;44177;43.356;27.672;2023-11-18T01:56:06;97060.44;;;7.66;100.00
58373;BME280;44177;43.356;27.672;2023-11-18T01:58:35;97054.69;;;7.51;100.00
58373;BME280;44177;43.356;27.672;2023-11-18T02:01:03;97001.50;;;7.31;100.00
58373;BME280;44177;43.356;27.672;2023-11-18T02:03:35;97033.25;;;7.46;100.00
58373;BME280;44177;43.356;27.672;2023-11-18T02:06:02;97023.81;;;7.40;100.00
58373;BME280;44177;43.356;27.672;2023-11-18T02:08:30;97032.38;;;7.42;100.00
58373;BME280;44177;43.356;27.672;2023-11-18T02:11:05;97027.00;;;7.26;100.00
58373;BME280;44177;43.356;27.672;2023-11-18T02:13:38;96993.44;;;6.99;100.00
58373;BME280;44177;43.356;27.672;2023-11-18T02:16:07;97021.16;;;7.08;100.00
58373;BME280;44177;43.356;27.672;2023-11-18T02:18:35;97031.63;;;7.25;100.00
58373;BME280;44177;43.356;27.672;2023-11-18T02:21:06;97055.00;;;7.30;100.00
58373;BME280;44177;43.356;27.672;2023-11-18T02:23:33;97004.72;;;7.01;100.00
58373;BME280;44177;43.356;27.672;2023-11-18T02:25:59;97029.03;;;7.13;100.00
58373;BME280;44177;43.356;27.672;2023-11-18T02:28:26;97043.91;;;7.19;100.00
58373;BME280;44177;43.356;27.672;2023-11-18T02:31:02;97059.22;;;7.11;100.00
58373;BME280;44177;43.356;27.672;2023-11-18T02:33:36;97052.13;;;7.07;100.00
58373;BME280;44177;43.356;27.672;2023-11-18T02:38:44;97049.50;;;6.94;100.00
58373;BME280;44177;43.356;27.672;2023-11-18T02:41:13;97071.47;;;7.05;100.00
58373;BME280;44177;43.356;27.672;2023-11-18T02:43:40;97080.72;;;7.04;100.00
58373;BME280;44177;43.356;27.672;2023-11-18T02:46:09;97069.09;;;7.04;100.00
58373;BME280;44177;43.356;27.672;2023-11-18T02:48:38;97083.81;;;7.03;100.00
58373;BME280;44177;43.356;27.672;2023-11-18T02:51:04;97075.75;;;6.90;100.00
58373;BME280;44177;43.356;27.672;2023-11-18T02:53:30;97081.97;;;6.91;100.00
58373;BME280;44177;43.356;27.672;2023-11-18T02:55:55;97090.97;;;6.95;100.00
58373;BME280;44177;43.356;27.672;2023-11-18T02:58:29;97049.69;;;6.70;100.00
58373;BME280;44177;43.356;27.672;2023-11-18T03:00:55;97080.31;;;6.86;100.00
58373;BME280;44177;43.356;27.672;2023-11-18T03:03:20;97077.31;;;6.91;100.00
58373;BME280;44177;43.356;27.672;2023-11-18T03:05:46;97046.69;;;6.75;100.00
58373;BME280;44177;43.356;27.672;2023-11-18T03:08:15;97076.34;;;7.00;100.00
58373;BME280;44177;43.356;27.672;2023-11-18T03:10:41;97066.66;;;6.99;100.00
58373;BME280;44177;43.356;27.672;2023-11-18T03:13:10;97066.31;;;7.00;100.00
58373;BME280;44177;43.356;27.672;2023-11-18T03:15:35;97028.16;;;6.77;100.00
58373;BME280;44177;43.356;27.672;2023-11-18T03:18:01;97067.53;;;7.03;100.00
58373;BME280;44177;43.356;27.672;2023-11-18T03:20:27;97081.38;;;6.98;100.00
58373;BME280;44177;43.356;27.672;2023-11-18T03:22:54;97110.91;;;7.03;100.00
58373;BME280;44177;43.356;27.672;2023-11-18T03:25:20;97088.88;;;6.88;100.00
58373;BME280;44177;43.356;27.672;2023-11-18T03:27:47;97108.81;;;6.96;100.00
58373;BME280;44177;43.356;27.672;2023-11-18T03:30:13;97104.78;;;6.90;100.00
58373;BME280;44177;43.356;27.672;2023-11-18T03:32:39;97107.59;;;6.93;100.00
58373;BME280;44177;43.356;27.672;2023-11-18T03:35:08;97094.47;;;6.95;100.00
58373;BME280;44177;43.356;27.672;2023-11-18T03:37:39;97100.75;;;7.00;100.00
58373;BME280;44177;43.356;27.672;2023-11-18T03:40:11;97101.66;;;7.04;100.00
58373;BME280;44177;43.356;27.672;2023-11-18T03:42:39;97092.91;;;6.94;100.00
58373;BME280;44177;43.356;27.672;2023-11-18T03:45:05;97095.97;;;6.93;100.00
58373;BME280;44177;43.356;27.672;2023-11-18T03:47:31;97098.50;;;7.02;100.00
58373;BME280;44177;43.356;27.672;2023-11-18T03:49:57;97095.50;;;7.07;100.00
58373;BME280;44177;43.356;27.672;2023-11-18T03:52:23;97084.56;;;7.03;100.00
58373;BME280;44177;43.356;27.672;2023-11-18T03:54:49;97054.31;;;6.85;100.00
58373;BME280;44177;43.356;27.672;2023-11-18T03:57:15;97075.84;;;6.94;100.00
58373;BME280;44177;43.356;27.672;2023-11-18T03:59:40;97076.63;;;6.94;100.00
58373;BME280;44177;43.356;27.672;2023-11-18T04:02:07;97076.53;;;6.91;100.00
58373;BME280;44177;43.356;27.672;2023-11-18T04:04:32;97088.88;;;6.88;100.00
58373;BME280;44177;43.356;27.672;2023-11-18T04:06:58;97067.78;;;6.82;100.00
58373;BME280;44177;43.356;27.672;2023-11-18T04:09:26;97045.41;;;6.69;100.00
58373;BME280;44177;43.356;27.672;2023-11-18T04:11:52;97047.41;;;6.72;100.00
58373;BME280;44177;43.356;27.672;2023-11-18T04:14:17;97039.78;;;6.61;100.00
58373;BME280;44177;43.356;27.672;2023-11-18T04:16:46;97052.03;;;6.71;100.00
58373;BME280;44177;43.356;27.672;2023-11-18T04:19:12;97018.22;;;6.49;100.00
58373;BME280;44177;43.356;27.672;2023-11-18T04:21:37;97043.56;;;6.73;100.00
58373;BME280;44177;43.356;27.672;2023-11-18T04:24:03;97027.75;;;6.59;100.00
58373;BME280;44177;43.356;27.672;2023-11-18T04:26:31;97000.69;;;6.30;100.00
58373;BME280;44177;43.356;27.672;2023-11-18T04:28:56;97024.94;;;6.55;100.00
58373;BME280;44177;43.356;27.672;2023-11-18T04:31:22;97029.28;;;6.44;100.00
58373;BME280;44177;43.356;27.672;2023-11-18T04:33:48;97025.72;;;6.40;100.00
58373;BME280;44177;43.356;27.672;2023-11-18T04:36:14;97024.91;;;6.39;100.00
58373;BME280;44177;43.356;27.672;2023-11-18T04:38:41;97016.00;;;6.39;100.00
58373;BME280;44177;43.356;27.672;2023-11-18T04:41:07;97025.25;;;6.38;100.00
58373;BME280;44177;43.356;27.672;2023-11-18T04:43:33;97000.06;;;6.21;100.00
58373;BME280;44177;43.356;27.672;2023-11-18T04:45:59;96978.16;;;5.98;100.00
58373;BME280;44177;43.356;27.672;2023-11-18T04:48:24;97002.13;;;6.12;100.00
58373;BME280;44177;43.356;27.672;2023-11-18T04:50:50;96999.44;;;6.12;100.00
58373;BME280;44177;43.356;27.672;2023-11-18T04:53:16;96996.22;;;6.06;100.00
58373;BME280;44177;43.356;27.672;2023-11-18T04:55:41;96996.78;;;5.99;100.00
58373;BME280;44177;43.356;27.672;2023-11-18T04:58:07;97000.72;;;6.02;100.00
58373;BME280;44177;43.356;27.672;2023-11-18T05:00:37;96989.13;;;6.02;100.00
58373;BME280;44177;43.356;27.672;2023-11-18T05:03:07;96982.78;;;5.97;100.00
58373;BME280;44177;43.356;27.672;2023-11-18T05:05:39;96993.81;;;6.05;100.00
58373;BME280;44177;43.356;27.672;2023-11-18T05:08:06;96999.72;;;5.94;100.00
58373;BME280;44177;43.356;27.672;2023-11-18T05:10:34;97021.38;;;5.94;100.00
58373;BME280;44177;43.356;27.672;2023-11-18T05:13:00;97027.47;;;5.91;100.00
58373;BME280;44177;43.356;27.672;2023-11-18T05:15:26;97030.06;;;6.00;100.00
58373;BME280;44177;43.356;27.672;2023-11-18T05:17:53;97017.47;;;5.79;100.00
58373;BME280;44177;43.356;27.672;2023-11-18T05:20:19;97018.72;;;5.82;100.00
58373;BME280;44177;43.356;27.672;2023-11-18T05:22:45;97009.56;;;5.87;100.00
58373;BME280;44177;43.356;27.672;2023-11-18T05:25:11;97003.13;;;5.91;100.00
58373;BME280;44177;43.356;27.672;2023-11-18T05:27:37;97014.28;;;5.90;100.00
58373;BME280;44177;43.356;27.672;2023-11-18T05:30:06;96995.28;;;5.74;100.00
58373;BME280;44177;43.356;27.672;2023-11-18T05:32:32;97003.38;;;5.86;100.00
58373;BME280;44177;43.356;27.672;2023-11-18T05:34:58;97005.81;;;5.91;100.00
58373;BME280;44177;43.356;27.672;2023-11-18T05:37:24;97007.03;;;5.94;100.00
58373;BME280;44177;43.356;27.672;2023-11-18T05:39:50;97012.38;;;5.90;100.00
58373;BME280;44177;43.356;27.672;2023-11-18T05:42:27;97000.22;;;5.84;100.00
58373;BME280;44177;43.356;27.672;2023-11-18T05:44:52;97000.97;;;5.97;100.00
58373;BME280;44177;43.356;27.672;2023-11-18T05:47:25;97006.00;;;5.98;100.00
58373;BME280;44177;43.356;27.672;2023-11-18T05:49:54;97003.78;;;6.00;100.00
58373;BME280;44177;43.356;27.672;2023-11-18T05:52:20;96985.97;;;5.99;100.00
58373;BME280;44177;43.356;27.672;2023-11-18T05:54:46;96974.47;;;6.03;100.00
58373;BME280;44177;43.356;27.672;2023-11-18T05:57:15;96980.06;;;5.97;100.00
58373;BME280;44177;43.356;27.672;2023-11-18T05:59:42;96973.41;;;5.79;100.00
58373;BME280;44177;43.356;27.672;2023-11-18T06:02:08;97007.41;;;5.92;100.00
58373;BME280;44177;43.356;27.672;2023-11-18T06:04:33;97013.66;;;5.80;100.00
58373;BME280;44177;43.356;27.672;2023-11-18T06:06:59;96973.50;;;5.42;100.00
58373;BME280;44177;43.356;27.672;2023-11-18T06:09:24;97013.28;;;5.82;100.00
58373;BME280;44177;43.356;27.672;2023-11-18T06:11:51;96991.34;;;5.71;100.00
58373;BME280;44177;43.356;27.672;2023-11-18T06:14:19;96987.66;;;5.63;100.00
58373;BME280;44177;43.356;27.672;2023-11-18T06:16:44;97012.53;;;5.81;100.00
58373;BME280;44177;43.356;27.672;2023-11-18T06:19:10;96991.00;;;5.73;100.00
58373;BME280;44177;43.356;27.672;2023-11-18T06:21:36;97009.47;;;5.83;100.00
58373;BME280;44177;43.356;27.672;2023-11-18T06:24:03;97017.03;;;5.77;100.00
58373;BME280;44177;43.356;27.672;2023-11-18T06:26:31;97025.50;;;5.76;100.00
58373;BME280;44177;43.356;27.672;2023-11-18T06:28:57;97019.13;;;5.68;100.00
58373;BME280;44177;43.356;27.672;2023-11-18T06:31:23;97022.69;;;5.72;100.00
58373;BME280;44177;43.356;27.672;2023-11-18T06:33:50;97034.06;;;5.78;100.00
58373;BME280;44177;43.356;27.672;2023-11-18T06:38:48;97026.88;;;5.69;100.00
58373;BME280;44177;43.356;27.672;2023-11-18T06:41:22;97013.16;;;5.62;100.00
58373;BME280;44177;43.356;27.672;2023-11-18T06:44:02;97003.91;;;5.51;100.00
58373;BME280;44177;43.356;27.672;2023-11-18T06:46:34;96997.38;;;5.52;100.00
58373;BME280;44177;43.356;27.672;2023-11-18T06:49:02;97009.38;;;5.38;100.00
58373;BME280;44177;43.356;27.672;2023-11-18T06:51:34;96987.31;;;5.12;100.00
58373;BME280;44177;43.356;27.672;2023-11-18T06:54:04;96952.44;;;4.82;100.00
58373;BME280;44177;43.356;27.672;2023-11-18T06:56:38;97042.38;;;5.32;100.00
58373;BME280;44177;43.356;27.672;2023-11-18T06:59:05;97038.91;;;5.31;100.00
58373;BME280;44177;43.356;27.672;2023-11-18T07:01:32;96999.50;;;5.05;100.00
58373;BME280;44177;43.356;27.672;2023-11-18T07:03:58;97010.19;;;5.14;100.00
58373;BME280;44177;43.356;27.672;2023-11-18T07:06:24;97022.00;;;5.10;100.00
58373;BME280;44177;43.356;27.672;2023-11-18T07:08:52;97016.03;;;5.16;100.00
58373;BME280;44177;43.356;27.672;2023-11-18T07:11:19;97013.47;;;5.08;100.00
58373;BME280;44177;43.356;27.672;2023-11-18T07:13:48;97020.78;;;5.07;100.00
58373;BME280;44177;43.356;27.672;2023-11-18T07:16:14;97033.63;;;5.10;100.00
58373;BME280;44177;43.356;27.672;2023-11-18T07:18:41;97014.81;;;5.01;100.00
58373;BME280;44177;43.356;27.672;2023-11-18T07:21:08;97032.28;;;5.04;100.00
58373;BME280;44177;43.356;27.672;2023-11-18T07:23:35;97014.25;;;4.96;100.00
58373;BME280;44177;43.356;27.672;2023-11-18T07:26:01;97032.63;;;5.15;100.00
58373;BME280;44177;43.356;27.672;2023-11-18T07:28:27;97022.00;;;5.10;100.00
58373;BME280;44177;43.356;27.672;2023-11-18T07:30:53;97001.06;;;5.06;100.00
58373;BME280;44177;43.356;27.672;2023-11-18T07:33:19;96993.97;;;5.02;100.00
58373;BME280;44177;43.356;27.672;2023-11-18T07:35:46;97007.84;;;5.00;100.00
58373;BME280;44177;43.356;27.672;2023-11-18T07:38:13;96994.88;;;4.94;100.00
58373;BME280;44177;43.356;27.672;2023-11-18T07:40:39;97009.31;;;4.85;100.00
58373;BME280;44177;43.356;27.672;2023-11-18T07:43:16;96989.38;;;4.65;100.00
58373;BME280;44177;43.356;27.672;2023-11-18T07:45:42;96989.13;;;4.70;100.00
58373;BME280;44177;43.356;27.672;2023-11-18T07:48:10;96980.34;;;4.49;100.00
58373;BME280;44177;43.356;27.672;2023-11-18T07:50:40;96944.00;;;4.34;100.00
58373;BME280;44177;43.356;27.672;2023-11-18T07:53:06;96984.84;;;4.57;100.00
58373;BME280;44177;43.356;27.672;2023-11-18T07:55:32;96968.41;;;4.50;100.00
58373;BME280;44177;43.356;27.672;2023-11-18T07:58:08;96981.03;;;4.58;100.00
58373;BME280;44177;43.356;27.672;2023-11-18T08:00:43;96978.69;;;4.56;100.00
58373;BME280;44177;43.356;27.672;2023-11-18T08:03:12;96968.41;;;4.50;100.00
58373;BME280;44177;43.356;27.672;2023-11-18T08:05:43;96915.97;;;4.14;100.00
58373;BME280;44177;43.356;27.672;2023-11-18T08:08:09;96949.41;;;4.34;100.00
58373;BME280;44177;43.356;27.672;2023-11-18T08:10:37;97011.16;;;4.48;100.00
58373;BME280;44177;43.356;27.672;2023-11-18T08:13:09;97010.25;;;4.31;100.00
58373;BME280;44177;43.356;27.672;2023-11-18T08:15:37;97010.56;;;4.30;100.00
58373;BME280;44177;43.356;27.672;2023-11-18T08:18:03;97000.41;;;4.14;100.00
58373;BME280;44177;43.356;27.672;2023-11-18T08:20:29;96988.91;;;4.05;100.00
58373;BME280;44177;43.356;27.672;2023-11-18T08:22:55;96999.66;;;4.14;100.00
58373;BME280;44177;43.356;27.672;2023-11-18T08:25:21;96971.78;;;3.88;100.00
58373;BME280;44177;43.356;27.672;2023-11-18T08:27:47;96976.97;;;3.93;100.00
58373;BME280;44177;43.356;27.672;2023-11-18T08:30:13;97005.94;;;4.18;100.00
58373;BME280;44177;43.356;27.672;2023-11-18T08:32:41;96999.66;;;4.14;100.00
58373;BME280;44177;43.356;27.672;2023-11-18T08:35:10;96990.84;;;4.04;100.00
58373;BME280;44177;43.356;27.672;2023-11-18T08:37:38;97000.72;;;4.00;100.00
58373;BME280;44177;43.356;27.672;2023-11-18T08:40:05;97008.84;;;4.13;100.00
58373;BME280;44177;43.356;27.672;2023-11-18T08:42:51;97023.34;;;4.08;100.00
58373;BME280;44177;43.356;27.672;2023-11-18T08:45:18;97023.13;;;4.13;100.00
58373;BME280;44177;43.356;27.672;2023-11-18T08:47:48;97016.03;;;4.08;100.00
58373;BME280;44177;43.356;27.672;2023-11-18T08:50:16;96987.34;;;4.04;100.00
58373;BME280;44177;43.356;27.672;2023-11-18T08:52:43;96962.91;;;3.88;100.00
58373;BME280;44177;43.356;27.672;2023-11-18T08:55:12;96994.31;;;4.05;100.00
58373;BME280;44177;43.356;27.672;2023-11-18T08:57:46;96989.78;;;3.97;100.00
58373;BME280;44177;43.356;27.672;2023-11-18T09:00:25;96974.72;;;3.95;100.00
58373;BME280;44177;43.356;27.672;2023-11-18T09:03:10;96985.44;;;4.04;100.00
58373;BME280;44177;43.356;27.672;2023-11-18T09:05:49;96988.59;;;4.06;100.00
58373;BME280;44177;43.356;27.672;2023-11-18T09:08:27;96994.66;;;4.03;100.00
58373;BME280;44177;43.356;27.672;2023-11-18T09:10:55;96997.81;;;4.05;100.00
58373;BME280;44177;43.356;27.672;2023-11-18T09:13:24;96991.38;;;3.98;100.00
58373;BME280;44177;43.356;27.672;2023-11-18T09:16:03;97005.44;;;4.03;100.00
58373;BME280;44177;43.356;27.672;2023-11-18T09:18:30;97026.78;;;3.96;100.00
58373;BME280;44177;43.356;27.672;2023-11-18T09:20:57;97015.06;;;3.92;100.00
58373;BME280;44177;43.356;27.672;2023-11-18T09:23:27;97013.06;;;3.89;100.00
58373;BME280;44177;43.356;27.672;2023-11-18T09:25:53;97016.66;;;3.93;100.00
58373;BME280;44177;43.356;27.672;2023-11-18T09:28:20;97014.75;;;3.93;100.00
58373;BME280;44177;43.356;27.672;2023-11-18T09:30:46;97000.34;;;3.89;100.00
58373;BME280;44177;43.356;27.672;2023-11-18T09:33:21;97010.59;;;3.96;100.00
58373;BME280;44177;43.356;27.672;2023-11-18T09:38:31;96978.09;;;3.92;100.00
58373;BME280;44177;43.356;27.672;2023-11-18T09:40:59;96970.25;;;4.00;100.00
58373;BME280;44177;43.356;27.672;2023-11-18T09:43:35;96949.41;;;3.88;100.00
58373;BME280;44177;43.356;27.672;2023-11-18T09:46:25;96934.81;;;3.89;100.00
58373;BME280;44177;43.356;27.672;2023-11-18T09:49:40;96928.47;;;3.85;100.00
58373;BME280;44177;43.356;27.672;2023-11-18T09:51:44;96919.97;;;3.83;100.00
58373;BME280;44177;43.356;27.672;2023-11-18T09:54:26;96923.22;;;3.88;100.00
58373;BME280;44177;43.356;27.672;2023-11-18T09:57:54;96947.84;;;3.87;100.00
58373;BME280;44177;43.356;27.672;2023-11-18T10:00:04;96933.47;;;3.95;100.00
58373;BME280;44177;43.356;27.672;2023-11-18T10:02:45;96925.72;;;3.93;100.00
58373;BME280;44177;43.356;27.672;2023-11-18T10:05:12;96918.06;;;3.95;100.00
58373;BME280;44177;43.356;27.672;2023-11-18T10:07:42;96920.84;;;3.87;100.00
58373;BME280;44177;43.356;27.672;2023-11-18T10:10:10;96896.44;;;3.71;100.00
58373;BME280;44177;43.356;27.672;2023-11-18T10:12:43;96921.09;;;3.94;100.00
58373;BME280;44177;43.356;27.672;2023-11-18T10:15:18;96895.44;;;3.88;100.00
58373;BME280;44177;43.356;27.672;2023-11-18T10:17:45;96891.63;;;3.89;100.00
58373;BME280;44177;43.356;27.672;2023-11-18T10:20:45;96877.81;;;3.90;100.00
58373;BME280;44177;43.356;27.672;2023-11-18T10:23:13;96857.69;;;3.88;100.00
58373;BME280;44177;43.356;27.672;2023-11-18T10:25:47;96862.66;;;3.98;100.00
58373;BME280;44177;43.356;27.672;2023-11-18T10:28:25;96859.16;;;3.98;100.00
58373;BME280;44177;43.356;27.672;2023-11-18T10:31:03;96861.06;;;3.97;100.00
58373;BME280;44177;43.356;27.672;2023-11-18T10:33:37;96847.78;;;3.92;100.00
58373;BME280;44177;43.356;27.672;2023-11-18T10:36:04;96840.56;;;3.84;100.00
58373;BME280;44177;43.356;27.672;2023-11-18T10:38:38;96842.97;;;3.85;100.00
58373;BME280;44177;43.356;27.672;2023-11-18T10:41:09;96833.16;;;3.81;100.00
58373;BME280;44177;43.356;27.672;2023-11-18T10:43:35;96843.72;;;3.86;100.00
58373;BME280;44177;43.356;27.672;2023-11-18T10:46:09;96838.66;;;3.72;100.00
58373;BME280;44177;43.356;27.672;2023-11-18T10:48:46;96863.97;;;3.92;100.00
58373;BME280;44177;43.356;27.672;2023-11-18T10:51:18;96847.53;;;3.85;100.00
58373;BME280;44177;43.356;27.672;2023-11-18T10:53:49;96862.84;;;3.93;100.00
58373;BME280;44177;43.356;27.672;2023-11-18T10:56:26;96836.06;;;3.75;100.00
58373;BME280;44177;43.356;27.672;2023-11-18T10:58:58;96827.97;;;3.75;100.00
58373;BME280;44177;43.356;27.672;2023-11-18T11:01:31;96847.78;;;3.92;100.00
58373;BME280;44177;43.356;27.672;2023-11-18T11:03:58;96836.63;;;3.81;100.00
58373;BME280;44177;43.356;27.672;2023-11-18T11:06:24;96855.22;;;3.83;100.00
58373;BME280;44177;43.356;27.672;2023-11-18T11:08:53;96864.44;;;3.82;100.00
58373;BME280;44177;43.356;27.672;2023-11-18T11:11:22;96875.75;;;3.75;100.00
58373;BME280;44177;43.356;27.672;2023-11-18T11:13:59;96872.28;;;3.74;100.00
58373;BME280;44177;43.356;27.672;2023-11-18T11:16:34;96875.16;;;3.69;100.00
58373;BME280;44177;43.356;27.672;2023-11-18T11:19:04;96876.09;;;3.73;100.00
58373;BME280;44177;43.356;27.672;2023-11-18T11:21:50;96873.59;;;3.68;100.00
58373;BME280;44177;43.356;27.672;2023-11-18T11:27:33;96884.06;;;3.70;100.00
58373;BME280;44177;43.356;27.672;2023-11-18T11:30:23;96892.19;;;3.82;100.00
58373;BME280;44177;43.356;27.672;2023-11-18T11:35:36;96891.41;;;3.82;100.00
58373;BME280;44177;43.356;27.672;2023-11-18T11:38:03;96887.44;;;3.79;100.00
58373;BME280;44177;43.356;27.672;2023-11-18T11:40:37;96881.84;;;3.84;100.00
58373;BME280;44177;43.356;27.672;2023-11-18T11:43:06;96844.28;;;3.79;100.00
58373;BME280;44177;43.356;27.672;2023-11-18T11:45:35;96866.25;;;3.90;100.00
58373;BME280;44177;43.356;27.672;2023-11-18T11:48:02;96824.97;;;3.77;100.00
58373;BME280;44177;43.356;27.672;2023-11-18T11:53:33;96768.88;;;3.58;100.00
58373;BME280;44177;43.356;27.672;2023-11-18T11:56:02;96799.09;;;3.76;100.00
58373;BME280;44177;43.356;27.672;2023-11-18T11:58:41;96788.97;;;3.60;100.00
58373;BME280;44177;43.356;27.672;2023-11-18T12:01:38;96835.63;;;3.86;100.00
58373;BME280;44177;43.356;27.672;2023-11-18T12:04:04;96827.44;;;3.82;100.00
58373;BME280;44177;43.356;27.672;2023-11-18T12:06:42;96845.84;;;3.80;100.00
58373;BME280;44177;43.356;27.672;2023-11-18T12:09:09;96840.56;;;3.84;100.00
58373;BME280;44177;43.356;27.672;2023-11-18T12:11:36;96790.19;;;3.51;100.00
58373;BME280;44177;43.356;27.672;2023-11-18T12:14:07;96820.81;;;3.79;100.00
58373;BME280;44177;43.356;27.672;2023-11-18T12:19:41;96795.25;;;3.64;100.00
58373;BME280;44177;43.356;27.672;2023-11-18T12:22:18;96809.31;;;3.58;100.00
58373;BME280;44177;43.356;27.672;2023-11-18T12:24:45;96810.66;;;3.64;100.00
58373;BME280;44177;43.356;27.672;2023-11-18T12:27:12;96799.28;;;3.46;100.00
58373;BME280;44177;43.356;27.672;2023-11-18T12:29:44;96812.66;;;3.55;100.00
58373;BME280;44177;43.356;27.672;2023-11-18T12:32:10;96809.50;;;3.53;100.00
58373;BME280;44177;43.356;27.672;2023-11-18T12:34:55;96796.47;;;3.42;100.00
58373;BME280;44177;43.356;27.672;2023-11-18T12:43:10;96722.16;;;3.08;100.00
58373;BME280;44177;43.356;27.672;2023-11-18T12:48:21;96781.66;;;3.48;100.00
58373;BME280;44177;43.356;27.672;2023-11-18T12:50:53;96770.69;;;3.20;100.00
58373;BME280;44177;43.356;27.672;2023-11-18T12:53:23;96787.22;;;3.31;100.00
58373;BME280;44177;43.356;27.672;2023-11-18T12:55:50;96792.63;;;3.31;100.00
58373;BME280;44177;43.356;27.672;2023-11-18T12:58:16;96813.28;;;3.27;100.00
58373;BME280;44177;43.356;27.672;2023-11-18T13:00:43;96823.25;;;3.26;100.00
58373;BME280;44177;43.356;27.672;2023-11-18T13:03:10;96824.34;;;3.13;100.00
58373;BME280;44177;43.356;27.672;2023-11-18T13:05:36;96826.56;;;3.11;100.00
58373;BME280;44177;43.356;27.672;2023-11-18T13:08:04;96840.63;;;3.16;100.00
58373;BME280;44177;43.356;27.672;2023-11-18T13:10:29;96836.06;;;2.96;100.00
58373;BME280;44177;43.356;27.672;2023-11-18T13:12:55;96845.53;;;3.02;100.00
58373;BME280;44177;43.356;27.672;2023-11-18T13:15:20;96817.25;;;2.87;100.00
58373;BME280;44177;43.356;27.672;2023-11-18T13:18:03;96837.63;;;2.97;100.00
58373;BME280;44177;43.356;27.672;2023-11-18T13:20:32;96835.78;;;2.89;100.00
58373;BME280;44177;43.356;27.672;2023-11-18T13:23:01;96802.69;;;2.67;100.00
58373;BME280;44177;43.356;27.672;2023-11-18T13:25:34;96808.59;;;2.81;100.00
58373;BME280;44177;43.356;27.672;2023-11-18T13:28:01;96836.94;;;2.88;100.00